Time;durP1;ratioP1;P1;durP2;ratioP2;P2;SDS_P1;SDS_P2;PMS_P1;PMS_P2;Temp;Humidity;BMP_temperature;BMP_pressure;BME280_temperature;BME280_humidity;BME280_pressure;Samples;Min_cycle;Max_cycle;Signal;HPM_P1;HPM_P2
2023/07/25 00:02:31;;;;;;;33.75;8.20;;;28.80;66.70;;;;;;5094464;28;20506;-71
2023/07/25 00:05:36;;;;;;;32.85;9.95;;;29.00;66.50;;;;;;5094100;28;20062;-71
2023/07/25 00:08:39;;;;;;;36.20;8.13;;;29.10;66.00;;;;;;5094210;28;20047;-71
2023/07/25 00:11:45;;;;;;;39.72;10.18;;;29.20;65.90;;;;;;5094028;28;20067;-71
2023/07/25 00:14:50;;;;;;;34.45;8.10;;;29.30;66.20;;;;;;5093981;28;20193;-71
2023/07/25 00:17:53;;;;;;;30.40;9.30;;;29.30;66.50;;;;;;5093975;28;20051;-71
2023/07/25 00:20:57;;;;;;;28.58;9.25;;;29.10;67.40;;;;;;5093781;28;20047;-71
2023/07/25 00:24:01;;;;;;;32.85;9.75;;;29.00;67.10;;;;;;5093271;28;20408;-71
2023/07/25 00:27:05;;;;;;;27.42;8.43;;;28.80;68.00;;;;;;5093527;28;20039;-71
2023/07/25 00:30:10;;;;;;;32.03;8.02;;;28.80;67.50;;;;;;5093502;28;20055;-71
2023/07/25 00:33:13;;;;;;;32.80;7.93;;;28.80;67.70;;;;;;5093632;28;20047;-71
2023/07/25 00:36:17;;;;;;;41.33;9.38;;;28.70;67.70;;;;;;5093620;28;20043;-71
2023/07/25 00:39:21;;;;;;;39.40;7.90;;;28.70;67.70;;;;;;5093561;28;20043;-71
2023/07/25 00:42:25;;;;;;;29.08;7.78;;;28.30;67.50;;;;;;5092844;28;20522;-71
2023/07/25 00:45:30;;;;;;;37.55;8.00;;;28.10;67.50;;;;;;5092324;28;20047;-71
2023/07/25 00:48:34;;;;;;;28.63;7.65;;;28.00;67.80;;;;;;5092711;28;20392;-71
2023/07/25 00:51:37;;;;;;;34.10;8.43;;;28.00;67.60;;;;;;5093525;28;20054;-71
2023/07/25 00:54:47;;;;;;;31.00;7.43;;;28.10;66.50;;;;;;5092522;28;20047;-71
2023/07/25 00:57:51;;;;;;;26.33;6.53;;;28.20;66.90;;;;;;5092409;28;20043;-71
2023/07/25 01:01:03;;;;;;;30.75;8.43;;;28.40;66.70;;;;;;5093440;28;20392;-71
2023/07/25 01:04:07;;;;;;;35.50;8.80;;;28.60;67.80;;;;;;5091871;28;20051;-71
2023/07/25 01:07:13;;;;;;;36.20;8.05;;;28.60;66.70;;;;;;5092236;28;20408;-71
2023/07/25 01:10:17;;;;;;;23.67;8.15;;;28.60;65.50;;;;;;5092352;28;20047;-71
2023/07/25 01:13:22;;;;;;;29.67;8.25;;;28.40;64.80;;;;;;5093049;28;20050;-71
2023/07/25 01:16:27;;;;;;;24.55;8.30;;;28.30;64.80;;;;;;5091788;28;20047;-72
2023/07/25 01:19:33;;;;;;;33.15;7.53;;;28.10;65.00;;;;;;5091782;28;20519;-71
2023/07/25 01:22:38;;;;;;;31.98;7.82;;;28.20;65.30;;;;;;5092634;28;20043;-72
2023/07/25 01:25:46;;;;;;;20.10;6.57;;;28.30;65.20;;;;;;5092357;28;20062;-71
2023/07/25 01:28:49;;;;;;;24.08;7.78;;;28.30;64.90;;;;;;5092022;28;20475;-71
2023/07/25 01:31:53;;;;;;;25.63;7.10;;;28.30;66.00;;;;;;5092866;28;20067;-71
2023/07/25 01:34:58;;;;;;;29.42;8.27;;;28.20;66.80;;;;;;5092314;28;20039;-72
2023/07/25 01:38:02;;;;;;;31.25;8.15;;;28.10;67.20;;;;;;5092444;28;20051;-72
2023/07/25 01:41:06;;;;;;;35.90;7.85;;;28.00;67.40;;;;;;5092737;28;20039;-71
2023/07/25 01:44:10;;;;;;;34.95;8.43;;;28.00;67.50;;;;;;5092480;28;20051;-71
2023/07/25 01:47:14;;;;;;;28.55;7.75;;;28.00;67.30;;;;;;5092671;28;20051;-71
2023/07/25 01:50:18;;;;;;;34.53;8.13;;;28.00;67.60;;;;;;5092297;28;20043;-71
2023/07/25 01:53:22;;;;;;;27.83;7.65;;;27.90;68.30;;;;;;5092222;28;20047;-70
2023/07/25 01:56:26;;;;;;;25.58;8.00;;;27.70;68.30;;;;;;5091218;28;20526;-71
2023/07/25 01:59:30;;;;;;;28.70;8.10;;;27.70;68.20;;;;;;5091470;28;20541;-71
2023/07/25 02:02:34;;;;;;;32.03;6.97;;;27.50;68.30;;;;;;5091203;28;20186;-71
2023/07/25 02:05:38;;;;;;;31.88;7.25;;;27.50;67.50;;;;;;5091786;28;20121;-71
2023/07/25 02:08:42;;;;;;;27.40;6.45;;;27.70;67.30;;;;;;5092260;28;20403;-70
2023/07/25 02:11:46;;;;;;;33.55;6.75;;;27.80;67.10;;;;;;5092009;28;20046;-71
2023/07/25 02:14:50;;;;;;;24.45;6.93;;;27.90;66.80;;;;;;5090834;28;20055;-71
2023/07/25 02:17:54;;;;;;;25.85;7.78;;;27.90;66.90;;;;;;5090871;28;20118;-70
2023/07/25 02:20:59;;;;;;;33.13;7.15;;;27.80;67.20;;;;;;5090870;28;20178;-71
2023/07/25 02:24:12;;;;;;;35.30;8.25;;;27.90;66.00;;;;;;5090465;28;20071;-70
2023/07/25 02:27:16;;;;;;;31.60;7.03;;;27.80;66.80;;;;;;5090645;28;20058;-71
2023/07/25 02:30:21;;;;;;;29.85;7.00;;;27.80;67.10;;;;;;5091361;28;20051;-71
2023/07/25 02:33:25;;;;;;;35.05;7.18;;;27.60;66.80;;;;;;5091403;28;20398;-71
2023/07/25 02:36:29;;;;;;;33.55;8.18;;;27.60;66.90;;;;;;5091324;28;20043;-71
2023/07/25 02:39:33;;;;;;;39.90;7.78;;;27.60;66.50;;;;;;5091350;28;20046;-70
2023/07/25 02:42:37;;;;;;;27.67;7.10;;;27.60;66.80;;;;;;5091124;28;20102;-71
2023/07/25 02:45:41;;;;;;;36.08;7.32;;;27.70;66.00;;;;;;5091037;28;20059;-70
2023/07/25 02:48:45;;;;;;;39.88;8.07;;;27.80;65.80;;;;;;5091298;28;20050;-71
2023/07/25 02:51:49;;;;;;;32.75;8.35;;;27.90;66.20;;;;;;5091340;28;20390;-70
2023/07/25 02:54:53;;;;;;;35.30;8.00;;;27.70;67.10;;;;;;5090098;28;20106;-71
2023/07/25 02:57:57;;;;;;;27.30;7.15;;;27.60;67.60;;;;;;5091329;28;20047;-71
2023/07/25 03:01:00;;;;;;;25.08;8.88;;;27.50;66.50;;;;;;5090454;28;20040;-71
2023/07/25 03:04:04;;;;;;;28.70;7.65;;;27.60;66.30;;;;;;5091336;28;20071;-71
2023/07/25 03:07:08;;;;;;;30.02;7.82;;;27.80;65.20;;;;;;5091199;28;20039;-71
2023/07/25 03:10:12;;;;;;;37.85;7.32;;;28.00;65.10;;;;;;5091264;28;20043;-71
2023/07/25 03:13:16;;;;;;;36.60;7.90;;;28.00;64.70;;;;;;5091106;28;20043;-71
2023/07/25 03:16:20;;;;;;;25.48;5.97;;;28.00;64.30;;;;;;5090768;28;20509;-70
2023/07/25 03:19:24;;;;;;;32.67;7.75;;;28.10;63.80;;;;;;5090007;28;20059;-70
2023/07/25 03:22:28;;;;;;;29.65;6.88;;;28.20;63.40;;;;;;5090243;28;20047;-71
2023/07/25 03:25:32;;;;;;;26.92;7.32;;;28.30;62.80;;;;;;5092254;28;20515;-71
2023/07/25 03:28:36;;;;;;;31.95;6.80;;;28.40;62.80;;;;;;5095159;28;20495;-71
2023/07/25 03:31:39;;;;;;;24.98;7.03;;;28.50;62.90;;;;;;5094843;28;20502;-71
2023/07/25 03:34:43;;;;;;;30.35;7.53;;;28.60;63.40;;;;;;5093968;28;20039;-71
2023/07/25 03:37:47;;;;;;;40.53;8.15;;;28.70;63.00;;;;;;5094875;28;20419;-71
2023/07/25 03:40:51;;;;;;;26.60;6.82;;;28.80;62.20;;;;;;5093842;28;20053;-71
2023/07/25 03:43:55;;;;;;;24.02;7.65;;;28.80;61.30;;;;;;5094684;28;20050;-72
2023/07/25 03:46:59;;;;;;;23.63;6.72;;;28.80;60.30;;;;;;5094801;28;20043;-71
2023/07/25 03:50:03;;;;;;;28.25;6.85;;;28.90;60.30;;;;;;5094799;28;20031;-71
2023/07/25 03:53:07;;;;;;;25.58;7.15;;;28.90;61.20;;;;;;5094628;28;20047;-71
2023/07/25 03:56:11;;;;;;;32.63;7.95;;;29.00;62.00;;;;;;5094593;28;20050;-71
2023/07/25 03:59:15;;;;;;;27.85;7.80;;;29.00;62.50;;;;;;5093722;28;20502;-71
2023/07/25 04:02:19;;;;;;;23.77;7.05;;;28.90;62.50;;;;;;5093869;28;20050;-71
2023/07/25 04:05:23;;;;;;;25.75;7.80;;;28.90;62.70;;;;;;5094323;28;20066;-71
2023/07/25 04:08:27;;;;;;;28.35;7.28;;;28.90;61.90;;;;;;5094285;28;20411;-71
2023/07/25 04:11:31;;;;;;;27.15;7.47;;;28.90;62.60;;;;;;5093596;28;20448;-71
2023/07/25 04:14:35;;;;;;;29.77;8.38;;;28.90;63.60;;;;;;5093412;28;20039;-71
2023/07/25 04:17:38;;;;;;;30.80;8.38;;;28.90;63.90;;;;;;5094378;28;20047;-71
2023/07/25 04:20:42;;;;;;;36.33;8.13;;;28.80;64.00;;;;;;5095399;28;20043;-71
2023/07/25 04:23:46;;;;;;;41.30;9.73;;;28.80;64.20;;;;;;5093641;28;20454;-70
2023/07/25 04:26:51;;;;;;;49.22;8.82;;;28.70;64.40;;;;;;5094252;28;20055;-71
2023/07/25 04:29:55;;;;;;;35.10;9.40;;;28.60;65.10;;;;;;5093275;28;20387;-71
2023/07/25 04:32:58;;;;;;;43.72;10.70;;;28.50;65.40;;;;;;5093672;28;20225;-71
2023/07/25 04:36:03;;;;;;;39.55;8.65;;;28.50;65.80;;;;;;5093707;28;20047;-71
2023/07/25 04:39:06;;;;;;;36.88;9.25;;;28.40;66.30;;;;;;5093050;28;20067;-71
2023/07/25 04:42:10;;;;;;;42.78;10.32;;;28.50;67.10;;;;;;5093559;28;20043;-71
2023/07/25 04:45:14;;;;;;;39.05;10.32;;;28.40;67.20;;;;;;5092415;28;20055;-70
2023/07/25 04:48:18;;;;;;;42.50;9.68;;;28.30;67.30;;;;;;5092504;28;20047;-71
2023/07/25 04:51:22;;;;;;;39.45;9.40;;;28.30;67.30;;;;;;5092762;28;20051;-71
2023/07/25 04:54:26;;;;;;;40.83;9.02;;;28.50;67.50;;;;;;5093417;28;20051;-71
2023/07/25 04:57:30;;;;;;;47.63;10.65;;;28.60;66.90;;;;;;5092621;28;20047;-71
2023/07/25 05:00:34;;;;;;;50.90;10.80;;;28.80;67.10;;;;;;5093337;28;20043;-71
2023/07/25 05:03:38;;;;;;;40.92;9.05;;;29.00;66.60;;;;;;5092474;28;20051;-65
2023/07/25 05:06:46;;;;;;;36.17;10.35;;;29.10;66.70;;;;;;5093170;28;20427;-66
2023/07/25 05:09:50;;;;;;;40.88;9.07;;;29.10;66.20;;;;;;5093107;28;20043;-66
2023/07/25 05:12:54;;;;;;;38.58;9.98;;;29.20;65.70;;;;;;5090433;28;20054;-66
2023/07/25 05:15:58;;;;;;;39.15;8.98;;;29.30;66.10;;;;;;5091029;28;20043;-66
2023/07/25 05:19:02;;;;;;;39.63;10.45;;;29.40;66.20;;;;;;5090810;28;20043;-66
2023/07/25 05:22:06;;;;;;;58.67;11.43;;;29.40;65.40;;;;;;5091017;28;20054;-66
2023/07/25 05:25:10;;;;;;;48.63;10.32;;;29.50;66.00;;;;;;5090884;28;20055;-66
2023/07/25 05:28:16;;;;;;;49.83;11.07;;;29.60;66.10;;;;;;5091750;28;20094;-66
2023/07/25 05:31:20;;;;;;;57.35;10.75;;;29.70;66.30;;;;;;5091654;28;20278;-66
2023/07/25 05:34:24;;;;;;;54.22;10.15;;;29.80;67.00;;;;;;5092736;28;20043;-66
2023/07/25 05:37:35;;;;;;;52.97;10.35;;;29.90;67.40;;;;;;5092545;28;20047;-66
2023/07/25 05:40:39;;;;;;;80.60;12.88;;;30.00;67.80;;;;;;5092486;28;20067;-66
2023/07/25 05:43:43;;;;;;;67.78;12.55;;;30.10;68.00;;;;;;5091844;28;20039;-66
2023/07/25 05:46:47;;;;;;;93.53;14.93;;;30.20;68.00;;;;;;5092396;28;20047;-66
2023/07/25 05:49:51;;;;;;;98.82;15.38;;;30.20;68.70;;;;;;5091629;28;20039;-66
2023/07/25 05:52:55;;;;;;;74.30;13.85;;;30.20;69.00;;;;;;5092488;28;20455;-66
2023/07/25 05:55:59;;;;;;;119.00;18.23;;;30.20;68.80;;;;;;5092002;28;20486;-66
2023/07/25 05:59:03;;;;;;;87.18;15.18;;;30.30;69.20;;;;;;5092316;28;20039;-66
2023/07/25 06:02:08;;;;;;;86.05;14.05;;;30.40;68.80;;;;;;5092000;28;20043;-66
2023/07/25 06:05:12;;;;;;;66.40;13.00;;;30.50;68.10;;;;;;5091824;28;20063;-66
2023/07/25 06:08:16;;;;;;;48.63;12.32;;;30.70;67.70;;;;;;5091787;28;20043;-66
2023/07/25 06:11:22;;;;;;;80.65;13.05;;;30.80;67.30;;;;;;5091892;28;20395;-66
2023/07/25 06:14:26;;;;;;;199.23;18.98;;;30.90;66.90;;;;;;5091614;28;20055;-65
2023/07/25 06:17:30;;;;;;;275.27;28.55;;;31.00;66.40;;;;;;5091634;28;20067;-65
2023/07/25 06:20:34;;;;;;;409.52;45.35;;;31.20;66.60;;;;;;5091576;28;20039;-65
2023/07/25 06:23:38;;;;;;;611.58;74.47;;;31.40;66.50;;;;;;5091175;28;20043;-64
2023/07/25 06:26:42;;;;;;;271.52;24.77;;;31.60;66.70;;;;;;5091075;28;20067;-65
2023/07/25 06:29:47;;;;;;;283.23;24.02;;;31.80;66.50;;;;;;5091403;28;20051;-65
2023/07/25 06:32:52;;;;;;;201.05;25.25;;;31.90;66.20;;;;;;5091060;28;20048;-64
2023/07/25 06:35:56;;;;;;;100.72;15.68;;;32.00;65.90;;;;;;5091026;28;20043;-64
2023/07/25 06:39:00;;;;;;;48.17;10.73;;;32.10;65.70;;;;;;5091211;28;20035;-65
2023/07/25 06:42:04;;;;;;;44.30;10.25;;;32.20;65.10;;;;;;5091363;28;20047;-65
2023/07/25 06:45:10;;;;;;;43.47;10.45;;;32.30;64.20;;;;;;5090199;28;20047;-64
2023/07/25 06:48:14;;;;;;;55.38;11.13;;;32.40;63.60;;;;;;5091101;28;20047;-65
2023/07/25 06:51:21;;;;;;;86.90;12.60;;;32.50;64.20;;;;;;5091207;28;20039;-62
2023/07/25 06:54:25;;;;;;;82.80;14.50;;;32.60;63.30;;;;;;5090942;28;20141;-62
2023/07/25 06:57:29;;;;;;;50.58;10.88;;;32.70;63.70;;;;;;5090961;28;20063;-64
2023/07/25 07:00:37;;;;;;;58.58;12.15;;;33.90;61.00;;;;;;5089825;28;20059;-63
2023/07/25 07:03:41;;;;;;;66.55;11.85;;;35.60;59.40;;;;;;5089727;28;20039;-63
2023/07/25 07:06:45;;;;;;;50.40;11.05;;;36.90;57.80;;;;;;5090814;28;20404;-62
2023/07/25 07:09:49;;;;;;;74.45;13.85;;;37.60;59.00;;;;;;5090810;28;20039;-62
2023/07/25 07:12:53;;;;;;;63.47;12.00;;;37.70;60.90;;;;;;5090856;28;20047;-61
2023/07/25 07:15:57;;;;;;;70.63;12.43;;;37.80;60.70;;;;;;5091262;28;20474;-62
2023/07/25 07:19:01;;;;;;;61.03;11.93;;;38.00;60.30;;;;;;5090839;28;20047;-62
2023/07/25 07:22:05;;;;;;;59.10;11.75;;;38.20;59.40;;;;;;5090653;28;20043;-62
2023/07/25 07:25:09;;;;;;;44.20;11.25;;;38.20;58.10;;;;;;5090189;28;20075;-63
2023/07/25 07:28:13;;;;;;;45.67;10.75;;;38.30;55.80;;;;;;5090793;28;20042;-62
2023/07/25 07:31:23;;;;;;;49.47;11.00;;;38.50;53.50;;;;;;5090728;28;20071;-64
2023/07/25 07:34:27;;;;;;;58.38;11.60;;;38.60;53.20;;;;;;5090446;28;20043;-64
2023/07/25 07:37:31;;;;;;;46.78;10.70;;;38.90;52.40;;;;;;5091041;28;20047;-64
2023/07/25 07:40:35;;;;;;;52.88;11.38;;;39.00;52.20;;;;;;5090630;28;20035;-64
2023/07/25 07:43:39;;;;;;;53.35;11.18;;;39.20;52.90;;;;;;5090783;28;20051;-62
2023/07/25 07:46:43;;;;;;;56.30;11.55;;;39.30;53.30;;;;;;5090408;28;20059;-64
2023/07/25 07:49:46;;;;;;;77.57;12.05;;;39.20;52.80;;;;;;5090428;28;20408;-66
2023/07/25 07:52:51;;;;;;;62.83;11.38;;;39.30;52.20;;;;;;5090070;28;20047;-64
2023/07/25 07:55:55;;;;;;;65.97;11.60;;;39.30;53.00;;;;;;5090016;28;20067;-64
2023/07/25 07:58:59;;;;;;;60.08;11.15;;;39.60;53.10;;;;;;5090194;28;20051;-63
2023/07/25 08:02:03;;;;;;;52.08;11.23;;;39.70;53.40;;;;;;5090459;28;20043;-64
2023/07/25 08:05:08;;;;;;;99.93;13.55;;;39.80;53.20;;;;;;5090358;28;20495;-63
2023/07/25 08:08:14;;;;;;;59.35;11.82;;;39.80;53.90;;;;;;5090491;28;20054;-64
2023/07/25 08:11:18;;;;;;;80.70;14.20;;;39.90;53.30;;;;;;5091067;28;20043;-64
2023/07/25 08:14:22;;;;;;;58.90;11.90;;;40.10;53.50;;;;;;5094324;28;20051;-64
2023/07/25 08:17:26;;;;;;;60.55;11.68;;;40.30;53.30;;;;;;5093960;28;20072;-64
2023/07/25 08:20:30;;;;;;;80.65;14.18;;;40.50;52.70;;;;;;5093936;28;20055;-64
2023/07/25 08:23:34;;;;;;;63.30;12.95;;;40.60;54.40;;;;;;5093801;28;20051;-66
2023/07/25 08:26:38;;;;;;;52.50;11.82;;;40.80;54.40;;;;;;5093607;28;20051;-64
2023/07/25 08:29:45;;;;;;;52.55;10.93;;;40.80;53.70;;;;;;5093626;28;20039;-63
2023/07/25 08:32:49;;;;;;;46.42;9.48;;;40.50;54.10;;;;;;5093983;28;20051;-63
2023/07/25 08:35:54;;;;;;;35.90;8.35;;;40.30;54.90;;;;;;5094009;28;20047;-65
2023/07/25 08:38:58;;;;;;;55.67;8.70;;;40.10;55.70;;;;;;5093765;28;20051;-63
2023/07/25 08:42:05;;;;;;;41.78;8.75;;;40.10;55.00;;;;;;5093562;28;20059;-62
2023/07/25 08:45:10;;;;;;;56.13;10.25;;;40.00;55.80;;;;;;5092173;28;20086;-63
2023/07/25 08:48:15;;;;;;;48.35;9.18;;;39.80;56.20;;;;;;5093251;28;20535;-64
2023/07/25 08:51:22;;;;;;;45.50;8.27;;;39.70;56.20;;;;;;5093430;28;20039;-63
2023/07/25 08:54:37;;;;;;;38.47;8.57;;;39.80;57.00;;;;;;5093470;28;20046;-63
2023/07/25 08:57:42;;;;;;;51.83;8.80;;;40.30;57.50;;;;;;5093430;28;20051;-62
2023/07/25 09:00:47;;;;;;;98.57;11.07;;;40.00;57.10;;;;;;5093466;28;20396;-62
2023/07/25 09:03:53;;;;;;;62.25;9.25;;;40.30;57.80;;;;;;5093304;28;20420;-62
2023/07/25 09:06:59;;;;;;;251.18;20.95;;;40.10;57.30;;;;;;5093098;28;20137;-63
2023/07/25 09:10:03;;;;;;;51.25;10.35;;;39.80;57.80;;;;;;5093113;28;20401;-64
2023/07/25 09:13:07;;;;;;;336.63;26.80;;;39.60;58.30;;;;;;5092940;28;20051;-63
2023/07/25 09:16:12;;;;;;;221.40;19.38;;;40.30;58.30;;;;;;5092997;28;20052;-64
2023/07/25 09:19:16;;;;;;;583.33;45.28;;;40.20;56.20;;;;;;5093047;28;20039;-62
2023/07/25 09:22:31;;;;;;;46.42;8.70;;;40.20;56.00;;;;;;5092483;28;20041;-62
2023/07/25 09:25:36;;;;;;;35.55;8.38;;;40.20;56.70;;;;;;5092341;28;20063;-63
2023/07/25 09:28:51;;;;;;;79.18;12.02;;;39.80;57.70;;;;;;5092823;28;20047;-64
2023/07/25 09:31:55;;;;;;;60.78;10.10;;;40.50;57.90;;;;;;5093094;28;20043;-63
2023/07/25 09:35:06;;;;;;;42.60;8.98;;;40.60;58.30;;;;;;5092750;28;20047;-64
2023/07/25 09:38:11;;;;;;;40.50;8.00;;;40.10;58.10;;;;;;5092621;28;20296;-63
2023/07/25 09:41:14;;;;;;;45.80;8.50;;;39.90;60.00;;;;;;5092771;28;20054;-63
2023/07/25 09:44:18;;;;;;;34.13;8.68;;;39.20;61.50;;;;;;5092523;28;20043;-63
2023/07/25 09:47:23;;;;;;;47.40;8.85;;;38.90;61.50;;;;;;5092711;28;20519;-63
2023/07/25 09:50:33;;;;;;;98.72;13.00;;;39.10;61.80;;;;;;5092106;28;20043;-62
2023/07/25 09:53:38;;;;;;;405.02;35.33;;;39.30;60.70;;;;;;5092510;28;20150;-63
2023/07/25 09:56:42;;;;;;;78.82;10.95;;;39.70;60.80;;;;;;5092073;28;20046;-62
2023/07/25 09:59:48;;;;;;;405.90;33.70;;;39.70;61.50;;;;;;5092474;28;20062;-62
2023/07/25 10:02:52;;;;;;;146.23;16.15;;;40.50;60.70;;;;;;5091963;28;20043;-63
2023/07/25 10:05:57;;;;;;;74.93;10.60;;;41.00;60.60;;;;;;5091742;28;20066;-63
2023/07/25 10:09:02;;;;;;;63.65;9.95;;;41.30;61.80;;;;;;5092095;28;20047;-63
2023/07/25 10:12:07;;;;;;;127.75;14.77;;;41.60;62.10;;;;;;5091720;28;20047;-63
2023/07/25 10:15:12;;;;;;;133.90;14.18;;;41.70;63.00;;;;;;5091875;28;20055;-63
2023/07/25 10:18:27;;;;;;;53.80;9.70;;;41.50;62.30;;;;;;5091470;28;20043;-63
2023/07/25 10:21:52;;;;;;;113.43;12.82;;;41.90;62.60;;;;;;5091552;28;20427;-63
2023/07/25 10:24:56;;;;;;;379.38;29.77;;;41.80;62.60;;;;;;5091338;28;20055;-63
2023/07/25 10:28:02;;;;;;;130.02;13.48;;;41.70;59.30;;;;;;5091793;28;20058;-62
2023/07/25 10:31:07;;;;;;;160.00;15.60;;;41.50;59.90;;;;;;5091700;28;20047;-63
2023/07/25 10:34:15;;;;;;;87.07;10.90;;;41.20;59.30;;;;;;5091001;28;20055;-61
2023/07/25 10:37:30;;;;;;;160.20;15.23;;;40.70;57.10;;;;;;5091322;28;20043;-64
2023/07/25 10:40:54;;;;;;;109.25;13.43;;;40.50;57.50;;;;;;5091384;28;20063;-64
2023/07/25 10:44:01;;;;;;;63.88;9.68;;;40.60;57.80;;;;;;5091195;28;20046;-64
2023/07/25 10:47:43;;;;;;;74.03;10.77;;;40.30;57.70;;;;;;5090050;28;20050;-64
2023/07/25 10:50:47;;;;;;;50.78;8.95;;;40.00;56.20;;;;;;5091015;28;20043;-64
2023/07/25 10:54:09;;;;;;;60.25;9.50;;;40.10;54.10;;;;;;5091212;28;20050;-63
2023/07/25 10:57:17;;;;;;;49.08;9.52;;;40.60;53.90;;;;;;5091186;28;20054;-64
2023/07/25 11:00:37;;;;;;;54.63;10.07;;;40.90;55.20;;;;;;5091100;28;20043;-63
2023/07/25 11:03:41;;;;;;;123.10;15.30;;;40.60;58.10;;;;;;5091028;28;20052;-64
2023/07/25 11:06:46;;;;;;;61.10;9.38;;;40.40;59.30;;;;;;5089114;28;20063;-64
2023/07/25 11:09:49;;;;;;;84.63;11.63;;;39.70;59.90;;;;;;5091005;28;20047;-64
2023/07/25 11:12:58;;;;;;;90.32;13.07;;;39.20;60.70;;;;;;5091177;28;20391;-64
2023/07/25 11:16:08;;;;;;;47.10;9.68;;;38.70;61.90;;;;;;5091076;28;20047;-64
2023/07/25 11:19:14;;;;;;;51.58;10.52;;;38.50;62.80;;;;;;5090872;28;20055;-64
2023/07/25 11:22:18;;;;;;;71.95;12.80;;;38.20;62.50;;;;;;5090810;28;20039;-64
2023/07/25 11:25:22;;;;;;;56.20;9.77;;;38.00;61.50;;;;;;5090287;28;20063;-65
2023/07/25 11:28:26;;;;;;;54.78;10.45;;;37.80;61.20;;;;;;5090637;28;20109;-64
2023/07/25 11:31:30;;;;;;;52.78;11.15;;;37.70;61.10;;;;;;5090529;28;20396;-64
2023/07/25 11:34:34;;;;;;;64.35;11.02;;;37.60;60.50;;;;;;5090457;28;20047;-65
2023/07/25 11:37:38;;;;;;;83.00;11.65;;;37.50;61.10;;;;;;5090723;28;20043;-66
2023/07/25 11:40:42;;;;;;;74.78;10.77;;;37.60;60.60;;;;;;5091089;28;20058;-65
2023/07/25 11:43:46;;;;;;;74.18;10.70;;;37.70;61.60;;;;;;5090590;28;20423;-64
2023/07/25 11:46:53;;;;;;;90.93;12.02;;;37.70;62.00;;;;;;5092263;28;20071;-65
2023/07/25 11:49:57;;;;;;;157.30;17.40;;;37.70;61.90;;;;;;5094736;28;20043;-65
2023/07/25 11:53:02;;;;;;;81.88;12.43;;;37.70;62.40;;;;;;5094684;28;20059;-64
2023/07/25 11:56:05;;;;;;;70.20;11.48;;;37.50;62.70;;;;;;5094468;28;20047;-64
2023/07/25 11:59:13;;;;;;;57.95;10.57;;;37.50;62.70;;;;;;5094686;28;20043;-65
2023/07/25 12:02:16;;;;;;;58.90;11.02;;;38.30;62.40;;;;;;5094265;28;20043;-66
2023/07/25 12:05:28;;;;;;;104.03;13.63;;;39.30;61.60;;;;;;5094149;28;20039;-64
2023/07/25 12:08:50;;;;;;;94.22;13.07;;;39.80;60.70;;;;;;5094154;28;20055;-65
2023/07/25 12:11:54;;;;;;;276.73;27.80;;;39.90;60.50;;;;;;5094439;28;20530;-64
2023/07/25 12:15:02;;;;;;;83.05;12.07;;;39.70;61.30;;;;;;5094149;28;20614;-64
2023/07/25 12:18:13;;;;;;;131.82;16.27;;;39.60;61.70;;;;;;5093880;28;20043;-65
2023/07/25 12:21:26;;;;;;;83.05;11.93;;;39.70;61.90;;;;;;5094025;28;20043;-64
2023/07/25 12:24:40;;;;;;;78.85;11.50;;;39.60;61.70;;;;;;5093630;28;20059;-63
2023/07/25 12:27:48;;;;;;;82.13;11.98;;;39.30;62.10;;;;;;5093127;28;20047;-64
2023/07/25 12:30:52;;;;;;;72.13;12.10;;;38.70;62.80;;;;;;5094188;28;20051;-64
2023/07/25 12:33:56;;;;;;;51.38;10.18;;;38.20;64.00;;;;;;5093362;28;20047;-64
2023/07/25 12:37:00;;;;;;;66.85;12.07;;;37.90;65.00;;;;;;5093557;28;20509;-65
2023/07/25 12:40:05;;;;;;;60.03;10.30;;;37.70;65.40;;;;;;5093846;28;20387;-64
2023/07/25 12:43:10;;;;;;;51.38;11.02;;;37.60;65.70;;;;;;5093719;28;20503;-63
2023/07/25 12:46:14;;;;;;;72.97;10.98;;;37.50;66.30;;;;;;5093379;28;20475;-62
2023/07/25 12:49:17;;;;;;;74.45;11.25;;;37.50;67.20;;;;;;5093620;28;20054;-63
2023/07/25 12:52:21;;;;;;;75.10;12.02;;;38.00;66.10;;;;;;5092933;28;20055;-64
2023/07/25 12:55:25;;;;;;;60.15;10.68;;;38.70;65.90;;;;;;5093512;28;20395;-64
2023/07/25 12:58:30;;;;;;;65.53;10.68;;;38.90;65.70;;;;;;5093338;28;20070;-64
2023/07/25 13:01:34;;;;;;;60.15;10.63;;;39.20;66.00;;;;;;5093378;28;20052;-64
2023/07/25 13:04:38;;;;;;;136.68;15.32;;;39.40;65.70;;;;;;5092274;28;20047;-65
2023/07/25 13:07:42;;;;;;;63.08;11.90;;;39.40;66.20;;;;;;5093132;28;20051;-65
2023/07/25 13:10:49;;;;;;;76.80;12.07;;;39.40;66.90;;;;;;5092642;28;20043;-65
2023/07/25 13:13:53;;;;;;;56.88;10.90;;;39.40;66.70;;;;;;5092881;28;20507;-65
2023/07/25 13:16:57;;;;;;;84.63;11.80;;;39.30;67.60;;;;;;5091642;28;20182;-65
2023/07/25 13:20:07;;;;;;;70.00;11.77;;;39.10;68.20;;;;;;5092998;28;20146;-65
2023/07/25 13:23:12;;;;;;;86.63;12.60;;;39.20;68.30;;;;;;5093013;28;20067;-65
2023/07/25 13:26:16;;;;;;;100.47;13.45;;;39.10;68.30;;;;;;5091640;28;20047;-65
2023/07/25 13:29:20;;;;;;;163.13;16.05;;;39.00;68.40;;;;;;5092837;28;20391;-65
2023/07/25 13:32:24;;;;;;;70.05;11.40;;;39.00;68.70;;;;;;5092978;28;20407;-65
2023/07/25 13:35:28;;;;;;;165.82;16.52;;;39.10;68.90;;;;;;5091635;28;20289;-65
2023/07/25 13:38:32;;;;;;;97.32;12.93;;;39.00;68.80;;;;;;5092799;28;20055;-65
2023/07/25 13:41:36;;;;;;;134.82;15.73;;;38.90;69.00;;;;;;5092809;28;20387;-66
2023/07/25 13:44:40;;;;;;;67.50;12.27;;;38.80;69.50;;;;;;5092380;28;20043;-66
2023/07/25 13:47:44;;;;;;;102.65;13.27;;;38.90;69.70;;;;;;5092370;28;20059;-66
2023/07/25 13:50:50;;;;;;;100.47;15.13;;;38.80;69.90;;;;;;5092763;28;20461;-62
2023/07/25 13:53:54;;;;;;;162.15;17.67;;;38.80;70.50;;;;;;5092162;28;20297;-63
2023/07/25 13:56:59;;;;;;;212.68;23.20;;;38.80;71.20;;;;;;5092359;28;20039;-62
2023/07/25 14:00:03;;;;;;;71.88;12.57;;;38.50;71.60;;;;;;5092040;28;20047;-63
2023/07/25 14:03:10;;;;;;;104.82;13.15;;;38.50;72.10;;;;;;5091702;28;20040;-63
2023/07/25 14:06:14;;;;;;;92.07;14.73;;;38.30;72.20;;;;;;5091878;28;20055;-62
2023/07/25 14:09:20;;;;;;;141.77;15.80;;;38.10;72.70;;;;;;5091474;28;20043;-62
2023/07/25 14:12:25;;;;;;;119.32;15.73;;;38.10;73.30;;;;;;5091871;28;20067;-63
2023/07/25 14:15:30;;;;;;;81.30;13.05;;;38.00;73.80;;;;;;5091994;28;20494;-64
2023/07/25 14:18:34;;;;;;;102.13;13.23;;;38.00;74.30;;;;;;5091445;28;20517;-62
2023/07/25 14:21:38;;;;;;;78.20;12.57;;;38.10;74.00;;;;;;5091336;28;20043;-62
2023/07/25 14:24:42;;;;;;;120.75;13.45;;;38.10;74.80;;;;;;5091365;28;20069;-63
2023/07/25 14:27:47;;;;;;;124.35;15.68;;;38.00;75.00;;;;;;5091138;28;20415;-63
2023/07/25 14:30:51;;;;;;;129.18;16.73;;;37.90;75.30;;;;;;5091535;28;20039;-62
2023/07/25 14:33:57;;;;;;;125.05;15.23;;;37.70;76.30;;;;;;5091425;28;20507;-63
2023/07/25 14:37:00;;;;;;;186.52;19.40;;;38.10;75.90;;;;;;5091500;28;20050;-63
2023/07/25 14:40:06;;;;;;;93.72;13.80;;;38.20;75.70;;;;;;5091256;28;20055;-63
2023/07/25 14:43:10;;;;;;;112.53;13.65;;;38.20;76.10;;;;;;5091310;28;20498;-63
2023/07/25 14:46:14;;;;;;;86.75;13.23;;;38.00;76.40;;;;;;5091127;28;20055;-64
2023/07/25 14:49:18;;;;;;;68.32;11.43;;;37.70;77.10;;;;;;5090961;28;20055;-64
2023/07/25 14:52:22;;;;;;;71.35;12.38;;;37.70;78.00;;;;;;5091188;28;20043;-69
2023/07/25 14:55:26;;;;;;;73.50;12.68;;;37.60;78.70;;;;;;5091630;28;20051;-66
2023/07/25 14:58:30;;;;;;;89.93;12.13;;;37.60;79.80;;;;;;5091378;28;20498;-64
2023/07/25 15:01:34;;;;;;;181.73;19.38;;;37.60;79.00;;;;;;5091334;28;20059;-62
2023/07/25 15:04:37;;;;;;;62.88;11.38;;;37.90;79.10;;;;;;5091577;28;20062;-62
2023/07/25 15:07:41;;;;;;;88.75;13.35;;;38.10;79.00;;;;;;5091002;28;20047;-62
2023/07/25 15:10:46;;;;;;;65.93;11.80;;;37.80;79.30;;;;;;5091056;28;20392;-61
2023/07/25 15:13:49;;;;;;;80.47;12.23;;;37.70;79.60;;;;;;5091101;28;20482;-62
2023/07/25 15:16:55;;;;;;;90.20;13.80;;;37.60;80.00;;;;;;5090957;28;20051;-61
2023/07/25 15:20:02;;;;;;;59.65;10.90;;;37.50;80.00;;;;;;5090434;28;20498;-61
2023/07/25 15:23:05;;;;;;;78.72;12.70;;;37.30;80.60;;;;;;5095230;28;20427;-63
2023/07/25 15:26:10;;;;;;;127.03;15.60;;;37.20;81.90;;;;;;5094572;28;20051;-63
2023/07/25 15:29:14;;;;;;;59.90;11.48;;;37.20;82.80;;;;;;5095042;28;20047;-64
2023/07/25 15:32:19;;;;;;;70.28;11.85;;;37.40;83.20;;;;;;5094852;28;20043;-63
2023/07/25 15:35:25;;;;;;;64.53;10.20;;;37.80;82.00;;;;;;5095027;28;20055;-65
2023/07/25 15:38:30;;;;;;;88.38;15.80;;;37.60;81.50;;;;;;5095021;28;20039;-64
2023/07/25 15:41:34;;;;;;;50.05;10.05;;;38.00;80.90;;;;;;5094407;28;20043;-64